createdAt,value
2023-08-05T00:01:19.459Z,14.38
2023-08-05T00:03:49.375Z,14.25
2023-08-05T00:06:18.235Z,14.20
2023-08-05T00:08:47.486Z,14.12
2023-08-05T00:11:18.427Z,14.03
2023-08-05T00:13:49.141Z,14.11
2023-08-05T00:16:18.253Z,14.05
2023-08-05T00:18:46.490Z,14.06
2023-08-05T00:21:16.407Z,14.03
2023-08-05T00:23:44.791Z,13.93
2023-08-05T00:26:12.881Z,13.87
2023-08-05T00:28:45.648Z,13.79
2023-08-05T00:31:13.986Z,13.66
2023-08-05T00:33:44.628Z,13.58
2023-08-05T00:36:16.232Z,13.50
2023-08-05T00:38:49.727Z,13.48
2023-08-05T00:41:20.234Z,13.45
2023-08-05T00:43:51.122Z,13.52
2023-08-05T00:46:24.082Z,13.53
2023-08-05T00:48:55.331Z,13.57
2023-08-05T00:51:25.368Z,13.45
2023-08-05T00:53:53.791Z,13.40
2023-08-05T00:56:21.903Z,13.33
2023-08-05T00:58:50.422Z,13.33
2023-08-05T01:01:18.773Z,13.30
2023-08-05T01:03:47.274Z,13.25
2023-08-05T01:06:17.596Z,13.21
2023-08-05T01:08:48.743Z,13.20
2023-08-05T01:11:20.548Z,13.16
2023-08-05T01:13:53.429Z,13.23
2023-08-05T01:16:22.283Z,13.25
2023-08-05T01:18:55.139Z,13.26
2023-08-05T01:21:35.207Z,13.14
2023-08-05T01:24:16.636Z,13.10
2023-08-05T01:26:49.539Z,13.06
2023-08-05T01:29:18.126Z,12.94
2023-08-05T01:31:53.677Z,12.82
2023-08-05T01:34:21.931Z,12.76
2023-08-05T01:36:52.710Z,12.67
2023-08-05T01:39:21.378Z,12.61
2023-08-05T01:41:50.866Z,12.55
2023-08-05T01:44:22.181Z,12.49
2023-08-05T01:46:50.713Z,12.47
2023-08-05T01:49:19.135Z,12.45
2023-08-05T01:51:47.282Z,12.45
2023-08-05T01:54:17.426Z,12.47
2023-08-05T01:56:45.777Z,12.44
2023-08-05T01:59:15.224Z,12.45
2023-08-05T02:01:44.649Z,12.46
2023-08-05T02:04:15.966Z,12.43
2023-08-05T02:06:44.970Z,12.43
2023-08-05T02:09:13.090Z,12.50
2023-08-05T02:11:41.469Z,12.53
2023-08-05T02:14:12.683Z,12.49
2023-08-05T02:16:42.324Z,12.52
2023-08-05T02:19:12.544Z,12.54
2023-08-05T02:21:41.123Z,12.59
2023-08-05T02:24:12.408Z,12.50
2023-08-05T02:29:16.204Z,12.42
2023-08-05T02:31:44.447Z,12.36
2023-08-05T02:34:14.745Z,12.34
2023-08-05T02:36:43.071Z,12.27
2023-08-05T02:39:11.429Z,12.27
2023-08-05T02:41:41.123Z,12.40
2023-08-05T02:44:09.358Z,12.37
2023-08-05T02:46:38.902Z,12.34
2023-08-05T02:49:09.884Z,12.34
2023-08-05T02:51:38.226Z,12.47
2023-08-05T02:56:57.703Z,12.36
2023-08-05T02:59:25.802Z,12.35
2023-08-05T03:01:55.327Z,12.29
2023-08-05T03:04:23.881Z,12.18
2023-08-05T03:06:54.894Z,12.10
2023-08-05T03:09:25.779Z,12.00
2023-08-05T03:11:56.254Z,12.04
2023-08-05T03:17:14.476Z,12.09
2023-08-05T03:19:45.283Z,12.02
2023-08-05T03:22:16.461Z,11.99
2023-08-05T03:24:46.595Z,12.04
2023-08-05T03:27:15.101Z,11.98
2023-08-05T03:29:46.693Z,11.86
2023-08-05T03:32:17.084Z,11.83
2023-08-05T03:34:48.412Z,11.75
2023-08-05T03:37:19.395Z,11.60
2023-08-05T03:39:48.921Z,11.66
2023-08-05T03:42:20.170Z,11.67
2023-08-05T03:44:50.396Z,11.66
2023-08-05T03:47:21.721Z,11.63
2023-08-05T03:49:49.953Z,11.61
2023-08-05T03:52:18.408Z,11.60
2023-08-05T03:54:46.838Z,11.55
2023-08-05T03:57:16.173Z,11.55
2023-08-05T03:59:44.824Z,11.51
2023-08-05T04:02:13.190Z,11.48
2023-08-05T04:04:43.740Z,11.44
2023-08-05T04:07:15.082Z,11.38
2023-08-05T04:09:44.026Z,11.44
2023-08-05T04:12:16.280Z,11.49
2023-08-05T04:14:45.713Z,11.52
2023-08-05T04:17:16.870Z,11.57
2023-08-05T04:19:49.385Z,11.61
2023-08-05T04:22:21.596Z,11.68
2023-08-05T04:24:49.821Z,11.74
2023-08-05T04:27:18.198Z,11.75
2023-08-05T04:29:46.412Z,11.79
2023-08-05T04:32:19.285Z,11.79
2023-08-05T04:34:49.075Z,11.80
2023-08-05T04:37:18.367Z,11.84
2023-08-05T04:39:47.200Z,11.95
2023-08-05T04:42:18.817Z,11.90
2023-08-05T04:44:47.174Z,11.86
2023-08-05T04:47:15.757Z,11.85
2023-08-05T04:49:45.875Z,11.83
2023-08-05T04:52:15.974Z,11.85
2023-08-05T04:54:45.862Z,11.85
2023-08-05T04:57:17.105Z,11.90
2023-08-05T04:59:49.639Z,11.96
2023-08-05T05:02:17.937Z,12.02
2023-08-05T05:04:48.532Z,12.10
2023-08-05T05:07:18.210Z,12.25
2023-08-05T05:09:46.383Z,12.42
2023-08-05T05:12:16.910Z,12.56
2023-08-05T05:14:46.500Z,12.73
2023-08-05T05:17:16.796Z,12.94
2023-08-05T05:19:47.634Z,13.35
2023-08-05T05:22:20.107Z,14.10
2023-08-05T05:24:49.971Z,14.89
2023-08-05T05:27:19.158Z,15.45
2023-08-05T05:29:49.926Z,16.17
2023-08-05T05:32:18.310Z,16.77
2023-08-05T05:34:46.810Z,17.39
2023-08-05T05:37:17.429Z,17.78
2023-08-05T05:39:47.623Z,18.24
2023-08-05T05:42:16.465Z,17.71
2023-08-05T05:44:53.524Z,17.88
2023-08-05T05:47:29.242Z,18.17
2023-08-05T05:49:57.373Z,18.46
2023-08-05T05:52:25.611Z,18.55
2023-08-05T05:54:55.975Z,18.83
2023-08-05T05:57:24.517Z,19.22
2023-08-05T05:59:52.817Z,19.59
2023-08-05T06:02:21.037Z,20.87
2023-08-05T06:04:49.531Z,21.33
2023-08-05T06:07:17.990Z,20.98
2023-08-05T06:09:48.652Z,21.91
2023-08-05T06:12:19.469Z,21.50
2023-08-05T06:14:47.854Z,20.98
2023-08-05T06:17:19.832Z,20.88
2023-08-05T06:19:48.264Z,21.31
2023-08-05T06:22:16.364Z,21.38
2023-08-05T06:24:49.250Z,21.87
2023-08-05T06:27:18.862Z,21.78
2023-08-05T06:29:47.217Z,22.34
2023-08-05T06:32:17.568Z,21.41
2023-08-05T06:34:48.217Z,22.11
2023-08-05T06:37:16.419Z,22.73
2023-08-05T06:39:44.776Z,22.53
2023-08-05T06:42:13.013Z,22.36
2023-08-05T06:44:45.823Z,21.76
2023-08-05T06:47:14.610Z,22.29
2023-08-05T06:49:45.192Z,21.97
2023-08-05T06:52:13.446Z,22.66
2023-08-05T06:54:44.402Z,23.58
2023-08-05T06:57:12.605Z,23.02
2023-08-05T06:59:40.829Z,23.62
2023-08-05T07:02:13.400Z,23.38
2023-08-05T07:04:41.646Z,23.79
2023-08-05T07:07:09.725Z,25.43
2023-08-05T07:09:41.075Z,25.79
2023-08-05T07:12:11.562Z,25.18
2023-08-05T07:14:40.849Z,25.90
2023-08-05T07:17:09.076Z,26.55
2023-08-05T07:19:38.434Z,26.09
2023-08-05T07:22:07.838Z,25.44
2023-08-05T07:24:35.929Z,25.57
2023-08-05T07:30:17.220Z,25.51
2023-08-05T07:32:45.391Z,26.64
2023-08-05T07:35:16.059Z,26.28
2023-08-05T07:37:48.517Z,24.92
2023-08-05T07:40:19.377Z,27.13
2023-08-05T07:42:50.583Z,26.37
2023-08-05T07:45:22.240Z,24.71
2023-08-05T07:47:50.501Z,26.97
2023-08-05T07:50:23.118Z,27.62
2023-08-05T07:52:54.768Z,28.49
2023-08-05T07:55:23.696Z,27.67
2023-08-05T07:57:52.530Z,28.71
2023-08-05T08:00:24.450Z,27.99
2023-08-05T08:02:52.925Z,27.58
2023-08-05T08:05:21.275Z,27.90
2023-08-05T08:07:52.469Z,28.94
2023-08-05T08:10:26.002Z,29.40
2023-08-05T08:12:54.464Z,29.88
2023-08-05T08:15:26.443Z,28.68
2023-08-05T08:17:56.875Z,28.27
2023-08-05T08:20:25.036Z,28.11
2023-08-05T08:22:53.058Z,27.75
2023-08-05T08:25:24.193Z,28.21
2023-08-05T08:27:52.760Z,29.21
2023-08-05T08:30:20.869Z,28.37
2023-08-05T08:32:50.365Z,28.51
2023-08-05T08:35:18.637Z,27.91
2023-08-05T08:37:46.762Z,28.33
2023-08-05T08:40:17.678Z,29.20
2023-08-05T08:42:52.157Z,28.96
2023-08-05T08:45:27.048Z,29.06
2023-08-05T08:47:59.184Z,28.82
2023-08-05T08:50:29.847Z,28.76
2023-08-05T08:53:00.317Z,28.88
2023-08-05T08:55:30.592Z,28.55
2023-08-05T08:57:58.729Z,28.55
2023-08-05T09:00:28.430Z,28.70
2023-08-05T09:02:58.894Z,27.97
2023-08-05T09:05:27.689Z,27.83
2023-08-05T09:07:55.902Z,28.81
2023-08-05T09:10:25.120Z,29.86
2023-08-05T09:12:53.625Z,30.52
2023-08-05T09:15:23.270Z,28.31
2023-08-05T09:17:51.579Z,27.15
2023-08-05T09:20:23.395Z,26.12
2023-08-05T09:22:56.257Z,27.39
2023-08-05T09:25:27.257Z,29.25
2023-08-05T09:27:57.758Z,30.43
2023-08-05T09:30:28.953Z,30.55
2023-08-05T09:32:59.406Z,31.10
2023-08-05T09:35:31.814Z,31.88
2023-08-05T09:38:01.777Z,31.21
2023-08-05T09:40:33.956Z,30.55
2023-08-05T09:43:04.287Z,29.25
2023-08-05T09:45:37.100Z,30.51
2023-08-05T09:48:11.810Z,30.30
2023-08-05T09:50:45.120Z,31.12
2023-08-05T09:53:23.342Z,30.97
2023-08-05T09:55:51.754Z,31.98
2023-08-05T09:58:19.899Z,32.19
2023-08-05T10:00:50.889Z,32.91
2023-08-05T10:03:19.170Z,33.19
2023-08-05T10:05:49.130Z,32.72
2023-08-05T10:08:22.880Z,32.18
2023-08-05T10:10:51.612Z,31.58
2023-08-05T10:13:23.543Z,31.43
2023-08-05T10:15:54.473Z,32.75
2023-08-05T10:18:27.461Z,33.26
2023-08-05T10:21:06.746Z,31.04
2023-08-05T10:23:36.948Z,32.50
2023-08-05T10:26:06.146Z,32.52
2023-08-05T10:28:41.635Z,33.42
2023-08-05T10:31:25.292Z,31.04
2023-08-05T10:34:19.435Z,31.15
2023-08-05T10:36:49.801Z,31.28
2023-08-05T10:39:45.925Z,32.23
2023-08-05T10:42:33.961Z,32.74
2023-08-05T10:45:02.566Z,32.60
2023-08-05T10:47:31.968Z,30.09
2023-08-05T10:50:03.322Z,31.49
2023-08-05T10:52:38.469Z,30.89
2023-08-05T10:55:13.160Z,32.28
2023-08-05T10:57:48.440Z,30.65
2023-08-05T11:00:21.639Z,29.67
2023-08-05T11:03:24.332Z,30.30
2023-08-05T11:05:58.128Z,31.42
2023-08-05T11:08:31.728Z,31.43
2023-08-05T11:11:02.844Z,32.63
2023-08-05T11:13:33.954Z,32.75
2023-08-05T11:16:07.325Z,29.52
2023-08-05T11:18:38.401Z,27.74
2023-08-05T11:21:38.223Z,27.44
2023-08-05T11:24:10.033Z,26.97
2023-08-05T11:26:38.455Z,25.97
2023-08-05T11:29:06.691Z,25.16
2023-08-05T11:31:34.852Z,24.59
2023-08-05T11:36:56.656Z,23.73
2023-08-05T11:39:26.488Z,23.77
2023-08-05T11:41:55.047Z,23.87
2023-08-05T11:44:23.410Z,24.15
2023-08-05T11:46:59.511Z,25.20
2023-08-05T11:49:30.547Z,25.96
2023-08-05T11:51:58.777Z,26.53
2023-08-05T11:54:31.579Z,26.31
2023-08-05T11:57:00.718Z,25.43
2023-08-05T11:59:41.698Z,24.66
2023-08-05T12:02:11.256Z,24.76
2023-08-05T12:04:46.708Z,24.08
2023-08-05T12:07:15.644Z,23.76
2023-08-05T12:09:45.888Z,24.27
2023-08-05T12:12:16.175Z,24.29
2023-08-05T12:14:44.287Z,25.10
2023-08-05T12:17:14.612Z,26.72
2023-08-05T12:19:43.153Z,26.49
2023-08-05T12:22:11.255Z,25.82
2023-08-05T12:24:39.481Z,25.88
2023-08-05T12:27:18.889Z,24.85
2023-08-05T12:31:18.351Z,23.72
2023-08-05T12:33:46.921Z,24.00
2023-08-05T12:36:15.206Z,23.66
2023-08-05T12:38:49.394Z,23.43
2023-08-05T12:41:17.792Z,23.11
2023-08-05T12:43:45.938Z,23.35
2023-08-05T12:46:14.321Z,23.21
2023-08-05T12:48:44.944Z,23.63
2023-08-05T12:51:13.049Z,23.96
2023-08-05T12:53:42.729Z,24.05
2023-08-05T12:56:11.101Z,24.30
2023-08-05T12:58:39.277Z,24.97
2023-08-05T13:01:10.739Z,24.23
2023-08-05T13:03:39.313Z,23.90
2023-08-05T13:06:14.195Z,25.04
2023-08-05T13:08:44.293Z,24.63
2023-08-05T13:11:12.821Z,24.41
2023-08-05T13:13:44.197Z,24.91
2023-08-05T13:16:12.355Z,24.76
2023-08-05T13:18:40.806Z,24.45
2023-08-05T13:21:10.023Z,23.65
2023-08-05T13:23:42.707Z,23.81
2023-08-05T13:26:11.340Z,24.25
2023-08-05T13:28:41.833Z,24.02
2023-08-05T13:31:10.635Z,24.59
2023-08-05T13:33:39.092Z,24.50
2023-08-05T13:36:07.261Z,24.43
2023-08-05T13:38:58.046Z,24.09
2023-08-05T13:41:26.612Z,23.77
2023-08-05T13:43:57.357Z,23.52
2023-08-05T13:46:25.577Z,23.60
2023-08-05T13:48:54.178Z,23.88
2023-08-05T13:51:22.904Z,23.41
2023-08-05T13:53:51.953Z,23.52
2023-08-05T13:56:23.858Z,23.10
2023-08-05T13:58:53.836Z,23.33
2023-08-05T14:01:22.259Z,22.92
2023-08-05T14:03:53.916Z,23.22
2023-08-05T14:06:22.233Z,23.45
2023-08-05T14:08:50.894Z,23.55
2023-08-05T14:11:21.777Z,23.15
2023-08-05T14:13:51.240Z,23.24
2023-08-05T14:16:22.442Z,23.06
2023-08-05T14:18:50.579Z,23.36
2023-08-05T14:21:19.129Z,23.64
2023-08-05T14:23:47.624Z,23.84
2023-08-05T14:26:15.829Z,24.15
2023-08-05T14:28:44.678Z,24.43
2023-08-05T14:31:14.112Z,24.18
2023-08-05T14:33:42.244Z,23.87
2023-08-05T14:36:13.798Z,23.38
2023-08-05T14:38:42.714Z,23.10
2023-08-05T14:41:16.202Z,23.08
2023-08-05T14:43:45.937Z,23.16
2023-08-05T14:46:17.953Z,23.19
2023-08-05T14:48:48.508Z,23.26
2023-08-05T14:51:20.327Z,23.46
2023-08-05T14:53:49.003Z,23.62
2023-08-05T14:56:19.501Z,23.98
2023-08-05T14:58:48.352Z,24.28
2023-08-05T15:01:18.629Z,24.31
2023-08-05T15:03:47.907Z,24.51
2023-08-05T15:06:16.933Z,24.44
2023-08-05T15:08:46.771Z,24.32
2023-08-05T15:11:18.486Z,24.26
2023-08-05T15:13:49.274Z,24.06
2023-08-05T15:16:21.682Z,23.78
2023-08-05T15:18:50.043Z,23.78
2023-08-05T15:21:18.407Z,23.84
2023-08-05T15:23:49.978Z,23.77
2023-08-05T15:26:20.336Z,23.57
2023-08-05T15:28:51.821Z,24.01
2023-08-05T15:31:21.432Z,24.26
2023-08-05T15:33:49.599Z,24.08
2023-08-05T15:36:19.100Z,24.01
2023-08-05T15:38:48.179Z,24.02
2023-08-05T15:41:17.723Z,23.77
2023-08-05T15:43:46.003Z,23.50
2023-08-05T15:46:18.736Z,23.19
2023-08-05T15:48:48.386Z,23.17
2023-08-05T15:51:16.850Z,23.08
2023-08-05T15:53:45.448Z,23.01
2023-08-05T15:56:13.551Z,22.85
2023-08-05T15:58:42.475Z,22.89
2023-08-05T16:01:10.706Z,22.70
2023-08-05T16:03:39.254Z,22.67
2023-08-05T16:06:30.603Z,22.61
2023-08-05T16:08:58.863Z,22.60
2023-08-05T16:11:32.458Z,22.53
2023-08-05T16:14:01.128Z,22.57
2023-08-05T16:16:29.784Z,22.56
2023-08-05T16:18:57.881Z,22.56
2023-08-05T16:21:26.036Z,22.48
2023-08-05T16:23:57.950Z,22.25
2023-08-05T16:26:28.790Z,22.14
2023-08-05T16:28:56.929Z,21.86
2023-08-05T16:31:25.717Z,21.67
2023-08-05T16:33:54.254Z,21.52
2023-08-05T16:36:23.830Z,21.40
2023-08-05T16:38:51.998Z,21.34
2023-08-05T16:41:22.777Z,21.18
2023-08-05T16:43:53.309Z,20.87
2023-08-05T16:46:26.251Z,20.46
2023-08-05T16:48:59.687Z,19.83
2023-08-05T16:51:28.097Z,19.29
2023-08-05T16:53:58.910Z,18.76
2023-08-05T16:56:28.619Z,18.37
2023-08-05T16:58:56.819Z,17.93
2023-08-05T17:01:25.083Z,17.80
2023-08-05T17:03:53.328Z,17.62
2023-08-05T17:06:24.727Z,17.23
2023-08-05T17:08:53.050Z,16.82
2023-08-05T17:11:21.221Z,16.50
2023-08-05T17:13:50.728Z,16.31
2023-08-05T17:16:20.142Z,16.19
2023-08-05T17:18:48.440Z,16.06
2023-08-05T17:21:16.635Z,15.97
2023-08-05T17:23:46.384Z,15.98
2023-08-05T17:26:17.105Z,16.07
2023-08-05T17:32:18.609Z,16.11
2023-08-05T17:34:47.268Z,16.15
2023-08-05T17:37:15.479Z,16.28
2023-08-05T17:39:43.948Z,16.39
2023-08-05T17:42:12.163Z,16.41
2023-08-05T17:44:40.288Z,16.40
2023-08-05T17:47:09.004Z,16.29
2023-08-05T17:49:38.735Z,16.45
2023-08-05T17:52:09.830Z,16.46
2023-08-05T17:54:40.302Z,16.32
2023-08-05T17:57:08.749Z,16.54
2023-08-05T17:59:36.973Z,16.57
2023-08-05T18:02:05.393Z,16.65
2023-08-05T18:04:36.116Z,16.66
2023-08-05T18:07:06.169Z,16.67
2023-08-05T18:09:34.322Z,16.63
2023-08-05T18:12:02.529Z,16.68
2023-08-05T18:14:30.756Z,16.60
2023-08-05T18:16:59.150Z,16.59
2023-08-05T18:19:29.579Z,16.56
2023-08-05T18:21:57.747Z,16.47
2023-08-05T18:24:27.241Z,16.53
2023-08-05T18:26:55.978Z,16.61
2023-08-05T18:29:26.388Z,16.69
2023-08-05T18:31:54.866Z,16.70
2023-08-05T18:34:23.451Z,16.73
2023-08-05T18:36:51.630Z,16.72
2023-08-05T18:39:19.828Z,16.74
2023-08-05T18:41:50.120Z,16.75
2023-08-05T18:44:18.338Z,16.67
2023-08-05T18:46:46.507Z,16.66
2023-08-05T18:49:14.657Z,16.56
2023-08-05T18:51:42.949Z,16.54
2023-08-05T18:54:11.342Z,16.61
2023-08-05T18:56:39.473Z,16.53
2023-08-05T18:59:10.825Z,16.54
2023-08-05T19:01:41.650Z,16.55
2023-08-05T19:04:12.964Z,16.46
2023-08-05T19:06:41.317Z,16.44
2023-08-05T19:09:09.633Z,16.32
2023-08-05T19:11:40.357Z,16.38
2023-08-05T19:14:09.876Z,16.32
2023-08-05T19:16:38.064Z,16.31
2023-08-05T19:19:06.394Z,16.02
2023-08-05T19:21:34.506Z,16.22
2023-08-05T19:24:03.242Z,16.13
2023-08-05T19:26:31.369Z,16.09
2023-08-05T19:28:59.469Z,16.03
2023-08-05T19:31:29.214Z,15.96
2023-08-05T19:33:57.943Z,15.90
2023-08-05T19:36:26.022Z,15.86
2023-08-05T19:38:54.288Z,15.84
2023-08-05T19:41:22.651Z,15.80
2023-08-05T19:43:50.822Z,15.80
2023-08-05T19:46:19.286Z,15.73
2023-08-05T20:07:08.835Z,15.30
2023-08-05T20:09:37.745Z,15.32
2023-08-05T20:12:07.269Z,15.30
2023-08-05T20:14:36.955Z,15.31
2023-08-05T20:17:05.968Z,15.43
2023-08-05T20:19:34.456Z,15.45
2023-08-05T20:22:03.174Z,15.50
2023-08-05T20:24:33.255Z,15.40
2023-08-05T20:27:01.864Z,15.33
2023-08-05T20:31:57.328Z,15.25
2023-08-05T20:34:29.292Z,15.31
2023-08-05T20:36:57.927Z,15.41
2023-08-05T20:39:26.166Z,15.23
2023-08-05T20:41:55.792Z,15.18
2023-08-05T20:44:24.013Z,15.20
2023-08-05T20:46:52.273Z,15.29
2023-08-05T20:49:20.519Z,15.25
2023-08-05T20:51:50.294Z,15.30
2023-08-05T20:54:18.952Z,15.25
2023-08-05T20:56:47.052Z,15.23
2023-08-05T20:59:16.693Z,15.18
2023-08-05T21:01:45.052Z,15.19
2023-08-05T21:04:13.291Z,15.13
2023-08-05T21:06:41.727Z,15.17
2023-08-05T21:09:12.895Z,15.10
2023-08-05T21:11:41.416Z,15.07
2023-08-05T21:14:09.633Z,15.14
2023-08-05T21:16:39.536Z,15.16
2023-08-05T21:19:07.975Z,15.15
2023-08-05T21:21:38.570Z,15.11
2023-08-05T21:24:06.829Z,15.10
2023-08-05T21:26:35.101Z,15.09
2023-08-05T21:29:07.682Z,15.07
2023-08-05T21:31:36.125Z,15.05
2023-08-05T21:34:08.031Z,15.00
2023-08-05T21:36:36.525Z,14.98
2023-08-05T21:39:06.591Z,14.99
2023-08-05T21:41:38.138Z,14.93
2023-08-05T21:44:07.310Z,14.87
2023-08-05T21:46:35.571Z,14.82
2023-08-05T21:49:05.590Z,14.62
2023-08-05T21:51:36.161Z,14.69
2023-08-05T21:54:05.140Z,14.64
2023-08-05T21:56:34.853Z,14.61
2023-08-05T21:59:03.548Z,14.63
2023-08-05T22:01:31.750Z,14.65
2023-08-05T22:04:00.245Z,14.74
2023-08-05T22:06:29.832Z,14.87
2023-08-05T22:08:59.623Z,15.00
2023-08-05T22:11:27.853Z,15.10
2023-08-05T22:13:58.044Z,15.12
2023-08-05T22:16:26.619Z,15.17
2023-08-05T22:18:55.676Z,15.21
2023-08-05T22:21:24.023Z,15.17
2023-08-05T22:23:54.373Z,15.19
2023-08-05T22:26:26.313Z,15.17
2023-08-05T22:28:54.806Z,15.10
2023-08-05T22:33:22.045Z,14.93
2023-08-05T22:35:50.416Z,14.92
2023-08-05T22:38:21.187Z,14.88
2023-08-05T22:40:49.664Z,14.84
2023-08-05T22:43:19.044Z,14.74
2023-08-05T22:45:47.265Z,14.71
2023-08-05T22:48:15.780Z,14.64
2023-08-05T22:50:45.336Z,14.59
2023-08-05T22:53:13.477Z,14.54
2023-08-05T22:55:42.315Z,14.48
2023-08-05T22:58:11.900Z,14.43
2023-08-05T23:00:42.368Z,14.41
2023-08-05T23:03:10.715Z,14.40
2023-08-05T23:05:39.221Z,14.41
2023-08-05T23:08:10.919Z,14.44
2023-08-05T23:10:41.259Z,14.43
2023-08-05T23:13:09.361Z,14.44
2023-08-05T23:15:42.295Z,14.44
2023-08-05T23:18:10.617Z,14.46
2023-08-05T23:20:38.798Z,14.47
2023-08-05T23:23:07.058Z,14.47
2023-08-05T23:25:39.104Z,14.45
2023-08-05T23:28:07.332Z,14.43
2023-08-05T23:30:35.839Z,14.47
2023-08-05T23:33:04.139Z,14.54
2023-08-05T23:35:34.568Z,14.54
2023-08-05T23:38:02.876Z,14.58
2023-08-05T23:40:31.119Z,14.62
2023-08-05T23:43:00.790Z,14.64
2023-08-05T23:45:29.046Z,14.66
2023-08-05T23:47:57.197Z,14.68
2023-08-05T23:50:25.566Z,14.69
2023-08-05T23:52:56.020Z,14.69
2023-08-05T23:55:24.356Z,14.71
2023-08-05T23:57:52.702Z,14.70
